Time;durP1;ratioP1;P1;durP2;ratioP2;P2;SDS_P1;SDS_P2;PMS_P1;PMS_P2;Temp;Humidity;BMP_temperature;BMP_pressure;BME280_temperature;BME280_humidity;BME280_pressure;Samples;Min_cycle;Max_cycle;Signal;HPM_P1;HPM_P2
2023/05/17 00:01:56;;;;;;;17.20;13.30;;;;;;;;;;107670;1253;22517;-79
2023/05/17 00:04:22;;;;;;;16.70;13.30;;;;;;;;;;107658;1253;22515;-78
2023/05/17 00:06:48;;;;;;;16.00;12.70;;;;;;;;;;107638;1251;22530;-79
2023/05/17 00:09:15;;;;;;;16.30;11.80;;;;;;;;;;107679;1251;23237;-79
2023/05/17 00:11:41;;;;;;;17.20;14.00;;;;;;;;;;107655;1251;22535;-77
2023/05/17 00:14:07;;;;;;;14.10;12.30;;;;;;;;;;107655;1250;22545;-77
2023/05/17 00:16:34;;;;;;;14.10;11.30;;;;;;;;;;107643;1253;22518;-78
2023/05/17 00:19:00;;;;;;;12.00;10.60;;;;;;;;;;107616;1251;22578;-79
2023/05/17 00:21:27;;;;;;;11.90;9.80;;;;;;;;;;107683;1253;22692;-77
2023/05/17 00:23:53;;;;;;;9.80;8.50;;;;;;;;;;107691;1253;24278;-79
2023/05/17 00:26:19;;;;;;;10.10;8.60;;;;;;;;;;107689;1250;25386;-77
2023/05/17 00:28:46;;;;;;;9.70;8.70;;;;;;;;;;107669;1253;22525;-77
2023/05/17 00:31:12;;;;;;;9.60;7.80;;;;;;;;;;107675;1251;22523;-77
2023/05/17 00:33:38;;;;;;;9.10;8.00;;;;;;;;;;107665;1254;22572;-79
2023/05/17 00:36:05;;;;;;;9.90;8.50;;;;;;;;;;107685;1253;23504;-79
2023/05/17 00:38:31;;;;;;;9.80;7.80;;;;;;;;;;107678;1253;25699;-79
2023/05/17 00:40:57;;;;;;;9.80;7.70;;;;;;;;;;107630;1253;25306;-79
2023/05/17 00:43:24;;;;;;;10.20;8.30;;;;;;;;;;107664;1251;24231;-79
2023/05/17 00:45:51;;;;;;;8.30;6.90;;;;;;;;;;107728;1251;22524;-77
2023/05/17 00:48:19;;;;;;;8.50;7.60;;;;;;;;;;107674;1250;22529;-79
2023/05/17 00:50:46;;;;;;;9.40;8.10;;;;;;;;;;107676;1253;23150;-79
2023/05/17 00:53:15;;;;;;;8.00;6.60;;;;;;;;;;107675;1250;22522;-77
2023/05/17 00:55:44;;;;;;;8.80;6.80;;;;;;;;;;107723;1251;23311;-77
2023/05/17 00:58:11;;;;;;;7.60;6.40;;;;;;;;;;107693;1250;22693;-77
2023/05/17 01:00:38;;;;;;;8.00;6.70;;;;;;;;;;110716;1249;22099;-77
2023/05/17 01:03:04;;;;;;;6.80;5.90;;;;;;;;;;110976;1247;23341;-79
2023/05/17 01:05:30;;;;;;;6.70;5.40;;;;;;;;;;109023;1247;24243;-79
2023/05/17 01:07:57;;;;;;;8.90;5.90;;;;;;;;;;107896;1248;22524;-77
2023/05/17 01:10:32;;;;;;;8.40;5.20;;;;;;;;;;107885;1248;23402;-77
2023/05/17 01:13:02;;;;;;;6.60;5.90;;;;;;;;;;107910;1252;22568;-77
2023/05/17 01:15:32;;;;;;;6.10;5.50;;;;;;;;;;107900;1248;22627;-77
2023/05/17 01:18:01;;;;;;;6.90;5.60;;;;;;;;;;107866;1253;22554;-79
2023/05/17 01:20:27;;;;;;;;;;;;;;;;;;107919;1248;22975;-79
2023/05/17 01:23:08;;;;;;;7.40;5.90;;;;;;;;;;107962;1248;22542;-77
2023/05/17 01:25:48;;;;;;;7.10;5.70;;;;;;;;;;107931;1248;22693;-77
2023/05/17 01:28:14;;;;;;;5.70;5.00;;;;;;;;;;107710;1251;25368;-77
2023/05/17 01:30:41;;;;;;;5.40;4.30;;;;;;;;;;107729;1249;22521;-79
2023/05/17 01:33:07;;;;;;;5.40;4.30;;;;;;;;;;107763;1251;23768;-80
2023/05/17 01:35:34;;;;;;;5.30;4.60;;;;;;;;;;107768;1256;22487;-80
2023/05/17 01:38:00;;;;;;;5.20;4.40;;;;;;;;;;107711;1251;24187;-77
2023/05/17 01:40:26;;;;;;;5.50;4.60;;;;;;;;;;107767;1251;22672;-78
2023/05/17 01:42:58;;;;;;;5.40;4.40;;;;;;;;;;107780;1251;22539;-81
2023/05/17 01:45:25;;;;;;;4.90;4.20;;;;;;;;;;107707;1251;22522;-78
2023/05/17 01:48:05;;;;;;;5.20;4.20;;;;;;;;;;107695;1251;24247;-81
2023/05/17 01:50:32;;;;;;;4.90;4.40;;;;;;;;;;107738;1251;24266;-78
2023/05/17 01:53:01;;;;;;;5.20;4.70;;;;;;;;;;107590;1251;22639;-81
2023/05/17 01:55:37;;;;;;;5.30;4.80;;;;;;;;;;107738;1254;22650;-78
2023/05/17 01:58:05;;;;;;;6.80;4.00;;;;;;;;;;110873;1251;22214;-76
2023/05/17 02:00:31;;;;;;;5.90;4.70;;;;;;;;;;110573;1251;153436;-78
2023/05/17 02:02:57;;;;;;;4.10;3.70;;;;;;;;;;107863;1248;22525;-80
2023/05/17 02:05:24;;;;;;;4.90;4.10;;;;;;;;;;107873;1247;25297;-79
2023/05/17 02:07:50;;;;;;;4.90;4.00;;;;;;;;;;107908;1248;22515;-78
2023/05/17 02:10:16;;;;;;;4.20;3.80;;;;;;;;;;107858;1248;25488;-80
2023/05/17 02:12:43;;;;;;;3.90;3.50;;;;;;;;;;107870;1252;24426;-78
2023/05/17 02:15:10;;;;;;;3.60;3.20;;;;;;;;;;108008;1253;22573;-79
2023/05/17 02:17:38;;;;;;;4.30;3.60;;;;;;;;;;107927;1248;25217;-78
2023/05/17 02:20:07;;;;;;;5.20;3.30;;;;;;;;;;107725;1248;23002;-78
2023/05/17 02:22:34;;;;;;;4.00;3.10;;;;;;;;;;107882;1248;22567;-78
2023/05/17 02:25:01;;;;;;;3.30;2.70;;;;;;;;;;107905;1252;25300;-80
2023/05/17 02:27:27;;;;;;;2.90;2.10;;;;;;;;;;107876;1248;24186;-80
2023/05/17 02:29:54;;;;;;;3.70;2.20;;;;;;;;;;107787;1251;25403;-79
2023/05/17 02:32:20;;;;;;;3.70;2.80;;;;;;;;;;107666;1249;22537;-78
2023/05/17 02:34:46;;;;;;;2.60;2.40;;;;;;;;;;107712;1251;22564;-78
2023/05/17 02:37:13;;;;;;;3.00;2.40;;;;;;;;;;107699;1251;24264;-78
2023/05/17 02:39:39;;;;;;;4.20;2.70;;;;;;;;;;107710;1253;22541;-79
2023/05/17 02:42:05;;;;;;;2.80;2.40;;;;;;;;;;107733;1252;22527;-80
2023/05/17 02:44:32;;;;;;;3.10;2.60;;;;;;;;;;107716;1250;22538;-80
2023/05/17 02:46:58;;;;;;;2.80;2.20;;;;;;;;;;107583;1251;22577;-78
2023/05/17 02:49:24;;;;;;;2.40;2.10;;;;;;;;;;107702;1249;26556;-79
2023/05/17 02:51:51;;;;;;;2.30;2.10;;;;;;;;;;107682;1250;22565;-80
2023/05/17 02:54:17;;;;;;;3.10;2.20;;;;;;;;;;107697;1249;25218;-79
2023/05/17 02:56:43;;;;;;;2.00;1.80;;;;;;;;;;107669;1250;22630;-78
2023/05/17 02:59:10;;;;;;;2.90;2.00;;;;;;;;;;107701;1250;22515;-79
2023/05/17 03:01:36;;;;;;;2.80;2.20;;;;;;;;;;107710;1251;26194;-78
2023/05/17 03:04:02;;;;;;;1.90;1.60;;;;;;;;;;107690;1251;22533;-78
2023/05/17 03:06:30;;;;;;;2.70;2.30;;;;;;;;;;107735;1251;22538;-80
2023/05/17 03:08:56;;;;;;;2.00;1.50;;;;;;;;;;107668;1253;22454;-78
2023/05/17 03:11:22;;;;;;;3.60;1.70;;;;;;;;;;109953;1250;22329;-76
2023/05/17 03:13:50;;;;;;;2.40;1.90;;;;;;;;;;109144;1251;56568;-78
2023/05/17 03:16:17;;;;;;;2.90;2.10;;;;;;;;;;107659;1250;26589;-80
2023/05/17 03:18:43;;;;;;;2.60;2.00;;;;;;;;;;107635;1251;57796;-80
2023/05/17 03:21:09;;;;;;;2.40;1.70;;;;;;;;;;107632;1249;22869;-79
2023/05/17 03:23:36;;;;;;;3.50;2.20;;;;;;;;;;107637;1253;25707;-78
2023/05/17 03:26:02;;;;;;;2.20;2.00;;;;;;;;;;107673;1251;23900;-80
2023/05/17 03:28:28;;;;;;;1.90;1.40;;;;;;;;;;107639;1251;57615;-78
2023/05/17 03:30:55;;;;;;;3.00;1.60;;;;;;;;;;107620;1251;59850;-78
2023/05/17 03:33:21;;;;;;;3.40;1.60;;;;;;;;;;107642;1251;22630;-80
2023/05/17 03:35:47;;;;;;;1.70;1.50;;;;;;;;;;107672;1251;23281;-78
2023/05/17 03:38:14;;;;;;;2.10;1.60;;;;;;;;;;107718;1251;24872;-80
2023/05/17 03:40:40;;;;;;;1.70;1.50;;;;;;;;;;107713;1253;22534;-80
2023/05/17 03:43:07;;;;;;;2.10;1.80;;;;;;;;;;107655;1251;23738;-78
2023/05/17 03:45:33;;;;;;;2.90;1.70;;;;;;;;;;107718;1253;22563;-80
2023/05/17 03:47:59;;;;;;;2.00;1.80;;;;;;;;;;107661;1251;22557;-80
2023/05/17 03:50:26;;;;;;;2.20;1.80;;;;;;;;;;107699;1251;24186;-80
2023/05/17 03:52:52;;;;;;;4.00;3.30;;;;;;;;;;107735;1251;25353;-78
2023/05/17 03:55:18;;;;;;;7.00;6.00;;;;;;;;;;107689;1253;22554;-78
2023/05/17 03:57:45;;;;;;;10.80;9.70;;;;;;;;;;107665;1251;27623;-78
2023/05/17 04:00:12;;;;;;;48.10;39.50;;;;;;;;;;107643;1249;22530;-80
2023/05/17 04:02:38;;;;;;;46.60;35.40;;;;;;;;;;107644;1247;23075;-80
2023/05/17 04:05:04;;;;;;;9.40;8.40;;;;;;;;;;107696;1247;25524;-80
2023/05/17 04:07:31;;;;;;;7.30;6.20;;;;;;;;;;107831;1247;22528;-80
2023/05/17 04:09:58;;;;;;;5.80;4.70;;;;;;;;;;107927;1253;22519;-79
2023/05/17 04:12:25;;;;;;;13.40;12.10;;;;;;;;;;107867;1247;24099;-78
2023/05/17 04:14:51;;;;;;;7.60;6.80;;;;;;;;;;107898;1248;25374;-78
2023/05/17 04:17:17;;;;;;;22.60;20.20;;;;;;;;;;107802;1247;22983;-79
2023/05/17 04:19:44;;;;;;;39.10;29.80;;;;;;;;;;107855;1252;22525;-79
2023/05/17 04:22:10;;;;;;;85.00;55.20;;;;;;;;;;107869;1253;25216;-80
2023/05/17 04:24:36;;;;;;;127.20;84.80;;;;;;;;;;107814;1247;26572;-80
2023/05/17 04:27:03;;;;;;;33.10;26.20;;;;;;;;;;107814;1247;24226;-80
2023/05/17 04:29:30;;;;;;;24.70;20.00;;;;;;;;;;107771;1250;22628;-78
2023/05/17 04:31:56;;;;;;;15.60;12.70;;;;;;;;;;107695;1249;22623;-78
2023/05/17 04:34:23;;;;;;;8.90;6.90;;;;;;;;;;107858;1249;24337;-79
2023/05/17 04:36:50;;;;;;;6.30;5.40;;;;;;;;;;107785;1250;23217;-77
2023/05/17 04:39:16;;;;;;;5.30;4.80;;;;;;;;;;107695;1250;22528;-78
2023/05/17 04:41:43;;;;;;;5.60;4.90;;;;;;;;;;108315;1251;23753;-78
2023/05/17 04:44:10;;;;;;;5.70;4.90;;;;;;;;;;107635;1251;22533;-77
2023/05/17 04:46:36;;;;;;;4.10;3.40;;;;;;;;;;107697;1251;22553;-80
2023/05/17 04:49:02;;;;;;;5.80;4.10;;;;;;;;;;107655;1250;22602;-78
2023/05/17 04:51:29;;;;;;;3.80;3.20;;;;;;;;;;107704;1251;22532;-78
2023/05/17 04:53:59;;;;;;;6.40;4.80;;;;;;;;;;107711;1250;24349;-77
2023/05/17 04:56:26;;;;;;;6.10;4.30;;;;;;;;;;107691;1251;24347;-79
2023/05/17 04:58:53;;;;;;;4.00;3.40;;;;;;;;;;107689;1251;25402;-78
2023/05/17 05:01:19;;;;;;;2.50;2.20;;;;;;;;;;107703;1250;22519;-77
2023/05/17 05:03:45;;;;;;;2.50;2.20;;;;;;;;;;107715;1250;22627;-79
2023/05/17 05:06:12;;;;;;;3.90;3.60;;;;;;;;;;107669;1250;22540;-77
2023/05/17 05:08:38;;;;;;;4.20;3.80;;;;;;;;;;107722;1253;23098;-78
2023/05/17 05:11:05;;;;;;;3.30;2.70;;;;;;;;;;107735;1250;22526;-77
2023/05/17 05:13:32;;;;;;;3.00;2.40;;;;;;;;;;107728;1251;22905;-78
2023/05/17 05:15:58;;;;;;;3.90;1.90;;;;;;;;;;107678;1250;23224;-78
2023/05/17 05:18:24;;;;;;;3.30;2.20;;;;;;;;;;107765;1249;25393;-78
2023/05/17 05:20:51;;;;;;;2.80;2.20;;;;;;;;;;107741;1250;22549;-80
2023/05/17 05:23:17;;;;;;;2.00;1.80;;;;;;;;;;107703;1251;25281;-77
2023/05/17 05:25:43;;;;;;;2.60;1.90;;;;;;;;;;107674;1251;25393;-80
2023/05/17 05:28:10;;;;;;;3.90;2.10;;;;;;;;;;107716;1251;24370;-77
2023/05/17 05:30:37;;;;;;;4.40;2.40;;;;;;;;;;107649;1250;22540;-79
2023/05/17 05:33:03;;;;;;;3.70;2.50;;;;;;;;;;107646;1251;27374;-76
2023/05/17 05:35:29;;;;;;;7.20;3.20;;;;;;;;;;107674;1250;22529;-78
2023/05/17 05:37:56;;;;;;;4.40;3.30;;;;;;;;;;107592;1249;22558;-77
2023/05/17 05:40:23;;;;;;;2.80;2.00;;;;;;;;;;108784;1250;25494;-78
2023/05/17 05:42:49;;;;;;;4.10;2.60;;;;;;;;;;107975;1251;22538;-77
2023/05/17 05:45:15;;;;;;;3.90;2.20;;;;;;;;;;107861;1247;22526;-77
2023/05/17 05:47:42;;;;;;;4.50;2.50;;;;;;;;;;108026;1247;24194;-78
2023/05/17 05:50:08;;;;;;;3.90;3.00;;;;;;;;;;107889;1250;25383;-79
2023/05/17 05:52:35;;;;;;;3.90;2.70;;;;;;;;;;107904;1251;24180;-78
2023/05/17 05:55:01;;;;;;;8.10;5.90;;;;;;;;;;107738;1250;24335;-78
2023/05/17 05:57:27;;;;;;;46.50;32.50;;;;;;;;;;107855;1250;22533;-77
2023/05/17 05:59:54;;;;;;;9.80;6.50;;;;;;;;;;107995;1250;22573;-78
2023/05/17 06:02:20;;;;;;;4.90;2.50;;;;;;;;;;108417;1253;22538;-78
2023/05/17 06:04:47;;;;;;;6.60;2.80;;;;;;;;;;108189;1249;24234;-76
2023/05/17 06:07:13;;;;;;;5.90;2.80;;;;;;;;;;108187;1248;22514;-78
2023/05/17 06:09:40;;;;;;;3.60;2.20;;;;;;;;;;108142;1252;22560;-78
2023/05/17 06:12:06;;;;;;;5.50;2.60;;;;;;;;;;107859;1251;26048;-78
2023/05/17 06:14:33;;;;;;;4.40;2.80;;;;;;;;;;107997;1250;24196;-77
2023/05/17 06:16:59;;;;;;;5.50;3.50;;;;;;;;;;107992;1250;22580;-77
2023/05/17 06:19:25;;;;;;;3.60;2.50;;;;;;;;;;107866;1248;23419;-77
2023/05/17 06:21:51;;;;;;;3.00;2.00;;;;;;;;;;108355;1248;22539;-76
2023/05/17 06:24:18;;;;;;;2.70;2.40;;;;;;;;;;108256;1248;25386;-77
2023/05/17 06:26:45;;;;;;;2.60;2.00;;;;;;;;;;107965;1248;22542;-79
2023/05/17 06:29:12;;;;;;;3.40;2.20;;;;;;;;;;108683;1250;24222;-78
2023/05/17 06:31:38;;;;;;;3.10;2.40;;;;;;;;;;107966;1247;23071;-78
2023/05/17 06:34:04;;;;;;;6.70;3.20;;;;;;;;;;108128;1250;23794;-77
2023/05/17 06:36:31;;;;;;;3.70;3.20;;;;;;;;;;108313;1250;22540;-77
2023/05/17 06:38:57;;;;;;;4.10;3.10;;;;;;;;;;108190;1248;25393;-78
2023/05/17 06:41:24;;;;;;;4.80;3.30;;;;;;;;;;108366;1248;23248;-79
2023/05/17 06:43:50;;;;;;;5.70;5.20;;;;;;;;;;108041;1248;22645;-78
2023/05/17 06:46:16;;;;;;;4.70;4.00;;;;;;;;;;107951;1253;22518;-78
2023/05/17 06:48:43;;;;;;;5.00;3.80;;;;;;;;;;107934;1250;22548;-79
2023/05/17 06:51:09;;;;;;;4.40;3.40;;;;;;;;;;107867;1250;22638;-78
2023/05/17 06:53:36;;;;;;;6.40;4.30;;;;;;;;;;108110;1250;22642;-79
2023/05/17 06:56:02;;;;;;;3.30;2.80;;;;;;;;;;108093;1250;22552;-78
2023/05/17 06:58:29;;;;;;;2.20;2.00;;;;;;;;;;108044;1249;22534;-77
2023/05/17 07:00:56;;;;;;;4.30;3.40;;;;;;;;;;108130;1248;23131;-77
2023/05/17 07:03:22;;;;;;;3.60;1.70;;;;;;;;;;108163;1250;22520;-79
2023/05/17 07:05:48;;;;;;;1.60;1.20;;;;;;;;;;108248;1251;22618;-80
2023/05/17 07:08:15;;;;;;;1.70;1.40;;;;;;;;;;108123;1250;23354;-77
2023/05/17 07:10:41;;;;;;;2.10;1.40;;;;;;;;;;108134;1248;24489;-79
2023/05/17 07:13:07;;;;;;;1.40;1.20;;;;;;;;;;108120;1250;22527;-79
2023/05/17 07:15:34;;;;;;;1.70;1.20;;;;;;;;;;107925;1251;22619;-77
2023/05/17 07:18:00;;;;;;;1.60;1.00;;;;;;;;;;107905;1247;22738;-77
2023/05/17 07:20:27;;;;;;;2.00;1.50;;;;;;;;;;107813;1249;22527;-77
2023/05/17 07:22:53;;;;;;;2.30;2.10;;;;;;;;;;107962;1250;22528;-78
2023/05/17 07:25:20;;;;;;;2.30;1.60;;;;;;;;;;107828;1250;25505;-77
2023/05/17 07:27:46;;;;;;;1.90;1.20;;;;;;;;;;107847;1250;23110;-77
2023/05/17 07:30:13;;;;;;;1.50;1.20;;;;;;;;;;108045;1247;22597;-79
2023/05/17 07:32:39;;;;;;;3.80;1.40;;;;;;;;;;110679;1249;22402;-79
2023/05/17 07:35:05;;;;;;;1.10;1.00;;;;;;;;;;110693;1248;22649;-79
2023/05/17 07:37:32;;;;;;;1.60;1.20;;;;;;;;;;110707;1247;22257;-79
2023/05/17 07:39:59;;;;;;;1.20;0.90;;;;;;;;;;110673;1250;22406;-79
2023/05/17 07:42:25;;;;;;;1.50;1.00;;;;;;;;;;110639;1249;22324;-79
2023/05/17 07:44:52;;;;;;;1.40;1.10;;;;;;;;;;110660;1250;22894;-79
2023/05/17 07:47:18;;;;;;;2.00;1.40;;;;;;;;;;110711;1249;22473;-79
2023/05/17 07:49:44;;;;;;;2.50;1.50;;;;;;;;;;110648;1249;22993;-78
2023/05/17 07:52:11;;;;;;;2.20;1.10;;;;;;;;;;110622;1250;22763;-77
2023/05/17 07:54:37;;;;;;;3.40;1.50;;;;;;;;;;110632;1249;22578;-79
2023/05/17 07:57:04;;;;;;;1.40;1.10;;;;;;;;;;110645;1249;22265;-77
2023/05/17 07:59:30;;;;;;;1.80;1.40;;;;;;;;;;110680;1247;22482;-77
2023/05/17 08:01:57;;;;;;;2.20;1.50;;;;;;;;;;110661;1249;22427;-80
2023/05/17 08:04:23;;;;;;;2.70;1.70;;;;;;;;;;110652;1248;23153;-79
2023/05/17 08:06:50;;;;;;;1.80;1.30;;;;;;;;;;110675;1247;22631;-79
2023/05/17 08:09:16;;;;;;;3.90;2.30;;;;;;;;;;110697;1249;22414;-79
2023/05/17 08:11:45;;;;;;;3.40;1.80;;;;;;;;;;110401;1250;22435;-79
2023/05/17 08:14:13;;;;;;;3.00;1.80;;;;;;;;;;110663;1247;22524;-79
2023/05/17 08:16:40;;;;;;;2.70;1.60;;;;;;;;;;110694;1247;22431;-77
2023/05/17 08:19:07;;;;;;;2.10;1.60;;;;;;;;;;110653;1249;23185;-77
2023/05/17 08:21:34;;;;;;;4.30;3.40;;;;;;;;;;110716;1247;22477;-79
2023/05/17 08:24:00;;;;;;;2.30;1.60;;;;;;;;;;110594;1247;22525;-78
2023/05/17 08:26:26;;;;;;;5.50;3.60;;;;;;;;;;110760;1247;23813;-77
2023/05/17 08:28:52;;;;;;;5.50;2.90;;;;;;;;;;110715;1250;22523;-79
2023/05/17 08:31:19;;;;;;;6.60;3.10;;;;;;;;;;110515;1248;23474;-79
2023/05/17 08:33:45;;;;;;;3.50;2.70;;;;;;;;;;110685;1249;22444;-78
2023/05/17 08:36:12;;;;;;;4.60;2.80;;;;;;;;;;110673;1247;22616;-77
2023/05/17 08:38:38;;;;;;;3.30;2.30;;;;;;;;;;110696;1249;22701;-78
2023/05/17 08:41:04;;;;;;;2.40;1.90;;;;;;;;;;110663;1249;23159;-79
2023/05/17 08:43:31;;;;;;;4.30;2.20;;;;;;;;;;110643;1250;22582;-77
2023/05/17 08:45:58;;;;;;;5.40;2.90;;;;;;;;;;110673;1250;22296;-79
2023/05/17 08:48:25;;;;;;;5.50;3.80;;;;;;;;;;110689;1249;22657;-77
2023/05/17 08:50:53;;;;;;;4.80;3.90;;;;;;;;;;110651;1249;22649;-79
2023/05/17 08:53:19;;;;;;;3.80;3.10;;;;;;;;;;110631;1250;22502;-77
2023/05/17 08:55:48;;;;;;;3.40;2.60;;;;;;;;;;110687;1247;22500;-77
2023/05/17 08:58:15;;;;;;;;;;;;;;;;;;110735;1249;22566;-77
2023/05/17 09:00:41;;;;;;;4.40;3.10;;;;;;;;;;110681;1248;24174;-79
2023/05/17 09:03:08;;;;;;;4.60;2.80;;;;;;;;;;110488;1248;22451;-78
2023/05/17 09:05:35;;;;;;;2.90;2.60;;;;;;;;;;110703;1247;22405;-78
2023/05/17 09:08:01;;;;;;;4.30;3.00;;;;;;;;;;110495;1249;22404;-77
2023/05/17 09:10:29;;;;;;;2.40;2.20;;;;;;;;;;110670;1248;22554;-76
2023/05/17 09:12:56;;;;;;;2.60;2.10;;;;;;;;;;110634;1249;22248;-76
2023/05/17 09:15:25;;;;;;;3.20;2.70;;;;;;;;;;110645;1250;23277;-78
2023/05/17 09:17:52;;;;;;;2.70;2.40;;;;;;;;;;110685;1249;22538;-76
2023/05/17 09:20:22;;;;;;;3.10;2.40;;;;;;;;;;110561;1247;22340;-78
2023/05/17 09:22:49;;;;;;;4.70;3.20;;;;;;;;;;110693;1249;22656;-76
2023/05/17 09:25:19;;;;;;;2.70;2.40;;;;;;;;;;110724;1247;22686;-76
2023/05/17 09:27:46;;;;;;;3.10;2.10;;;;;;;;;;110640;1250;22587;-76
2023/05/17 09:30:12;;;;;;;2.20;1.70;;;;;;;;;;110622;1250;22517;-77
2023/05/17 09:32:43;;;;;;;4.20;2.40;;;;;;;;;;110386;1250;22411;-78
2023/05/17 09:35:10;;;;;;;4.20;2.20;;;;;;;;;;110620;1250;23009;-76
2023/05/17 09:37:36;;;;;;;2.90;2.00;;;;;;;;;;110652;1247;22449;-76
2023/05/17 09:40:05;;;;;;;10.00;7.70;;;;;;;;;;110616;1250;23142;-78
2023/05/17 09:42:35;;;;;;;3.50;2.80;;;;;;;;;;110644;1249;23150;-78
2023/05/17 09:45:02;;;;;;;3.90;3.00;;;;;;;;;;110559;1249;23062;-78
2023/05/17 09:47:28;;;;;;;5.90;4.30;;;;;;;;;;110659;1247;22502;-76
2023/05/17 09:49:55;;;;;;;8.10;5.20;;;;;;;;;;110648;1247;22491;-78
2023/05/17 09:52:22;;;;;;;7.40;3.90;;;;;;;;;;110740;1247;22584;-76
2023/05/17 09:54:52;;;;;;;7.80;4.60;;;;;;;;;;110562;1250;22379;-76
2023/05/17 09:57:18;;;;;;;8.30;5.60;;;;;;;;;;110757;1247;22342;-78
2023/05/17 09:59:45;;;;;;;7.40;5.70;;;;;;;;;;110621;1250;22373;-76
2023/05/17 10:02:23;;;;;;;6.80;5.70;;;;;;;;;;110599;1250;22348;-76
2023/05/17 10:04:52;;;;;;;6.30;5.30;;;;;;;;;;110622;1249;22454;-78
2023/05/17 10:07:19;;;;;;;6.00;4.60;;;;;;;;;;110476;1249;22335;-78
2023/05/17 10:09:52;;;;;;;6.60;5.00;;;;;;;;;;110633;1248;22963;-76
2023/05/17 10:12:20;;;;;;;7.40;5.40;;;;;;;;;;110634;1249;22455;-79
2023/05/17 10:14:47;;;;;;;4.80;3.70;;;;;;;;;;110607;1251;22367;-76
2023/05/17 10:17:13;;;;;;;6.60;5.90;;;;;;;;;;110660;1249;22553;-76
2023/05/17 10:19:40;;;;;;;4.80;3.70;;;;;;;;;;110603;1250;22273;-80
2023/05/17 10:22:06;;;;;;;5.20;3.60;;;;;;;;;;110556;1250;22449;-76
2023/05/17 10:24:36;;;;;;;4.50;3.50;;;;;;;;;;110582;1250;22385;-76
2023/05/17 10:27:03;;;;;;;5.30;4.00;;;;;;;;;;110638;1249;23089;-76
2023/05/17 10:29:30;;;;;;;4.50;4.10;;;;;;;;;;110478;1249;24011;-76
2023/05/17 10:31:56;;;;;;;3.10;2.30;;;;;;;;;;110663;1247;22870;-76
2023/05/17 10:34:23;;;;;;;4.30;3.30;;;;;;;;;;110647;1250;22627;-76
2023/05/17 10:36:49;;;;;;;4.20;2.70;;;;;;;;;;110686;1248;22578;-78
2023/05/17 10:39:15;;;;;;;7.10;5.30;;;;;;;;;;110623;1249;22500;-78
2023/05/17 10:41:42;;;;;;;4.40;3.50;;;;;;;;;;110617;1247;22909;-78
2023/05/17 10:44:10;;;;;;;4.10;2.60;;;;;;;;;;110602;1250;22344;-76
2023/05/17 10:46:37;;;;;;;4.10;2.50;;;;;;;;;;110624;1250;22576;-78
2023/05/17 10:49:03;;;;;;;4.50;2.80;;;;;;;;;;110691;1249;23378;-76
2023/05/17 10:51:32;;;;;;;4.40;3.00;;;;;;;;;;110657;1248;22368;-78
2023/05/17 10:53:58;;;;;;;;;;;;;;;;;;110638;1249;22702;-78
2023/05/17 10:56:24;;;;;;;4.30;3.10;;;;;;;;;;110609;1250;22356;-77
2023/05/17 10:59:11;;;;;;;5.10;2.70;;;;;;;;;;110569;1250;22584;-78
2023/05/17 11:01:51;;;;;;;9.30;5.30;;;;;;;;;;110545;1250;23210;-76
2023/05/17 11:04:22;;;;;;;4.40;3.60;;;;;;;;;;110588;1250;23309;-76
2023/05/17 11:06:50;;;;;;;7.60;6.00;;;;;;;;;;110702;1247;23143;-79
2023/05/17 11:09:17;;;;;;;8.70;5.80;;;;;;;;;;110649;1250;22331;-77
2023/05/17 11:12:02;;;;;;;6.50;5.10;;;;;;;;;;110729;1247;23139;-78
2023/05/17 11:14:44;;;;;;;5.60;4.20;;;;;;;;;;110675;1247;23079;-78
2023/05/17 11:17:13;;;;;;;4.80;3.40;;;;;;;;;;110689;1248;22262;-78
2023/05/17 11:19:58;;;;;;;5.10;4.20;;;;;;;;;;110607;1249;22229;-78
2023/05/17 11:22:25;;;;;;;5.40;4.50;;;;;;;;;;110589;1250;22389;-78
2023/05/17 11:24:52;;;;;;;4.50;3.40;;;;;;;;;;110600;1248;22445;-76
2023/05/17 11:27:19;;;;;;;4.10;2.90;;;;;;;;;;110693;1250;22576;-78
2023/05/17 11:29:46;;;;;;;6.20;3.70;;;;;;;;;;110698;1251;22859;-76
2023/05/17 11:32:13;;;;;;;5.30;3.80;;;;;;;;;;110745;1250;22802;-76
2023/05/17 11:34:39;;;;;;;4.70;3.20;;;;;;;;;;110425;1249;22466;-78
2023/05/17 11:37:09;;;;;;;2.90;2.40;;;;;;;;;;110658;1247;22709;-76
2023/05/17 11:39:35;;;;;;;5.70;3.00;;;;;;;;;;110604;1249;22256;-76
2023/05/17 11:42:02;;;;;;;3.90;2.70;;;;;;;;;;110455;1248;22344;-76
2023/05/17 11:44:32;;;;;;;3.90;3.50;;;;;;;;;;110558;1250;22312;-78
2023/05/17 11:47:02;;;;;;;3.40;2.70;;;;;;;;;;110660;1250;22362;-78
2023/05/17 11:49:29;;;;;;;4.30;3.40;;;;;;;;;;110606;1249;22370;-78
2023/05/17 11:51:55;;;;;;;3.10;2.70;;;;;;;;;;110421;1247;22569;-76
2023/05/17 11:54:23;;;;;;;3.70;3.00;;;;;;;;;;110674;1248;22655;-76
2023/05/17 11:56:49;;;;;;;4.60;2.90;;;;;;;;;;110681;1249;23413;-78
2023/05/17 11:59:19;;;;;;;5.20;3.40;;;;;;;;;;110503;1248;23039;-76
2023/05/17 12:01:45;;;;;;;4.40;3.20;;;;;;;;;;110415;1251;22487;-77
2023/05/17 12:04:12;;;;;;;5.70;3.80;;;;;;;;;;110470;1251;22621;-78
2023/05/17 12:06:38;;;;;;;6.40;5.70;;;;;;;;;;110795;1249;22391;-76
2023/05/17 12:09:09;;;;;;;5.80;4.30;;;;;;;;;;110627;1250;22468;-76
2023/05/17 12:11:38;;;;;;;5.00;4.00;;;;;;;;;;110514;1248;22466;-78
2023/05/17 12:14:04;;;;;;;4.90;3.60;;;;;;;;;;110723;1247;22822;-79
2023/05/17 12:16:31;;;;;;;4.30;3.90;;;;;;;;;;110559;1251;22520;-78
2023/05/17 12:18:58;;;;;;;4.80;3.80;;;;;;;;;;110741;1248;22496;-77
2023/05/17 12:21:24;;;;;;;6.00;5.10;;;;;;;;;;110740;1248;22622;-76
2023/05/17 12:23:50;;;;;;;5.00;3.80;;;;;;;;;;110677;1247;22555;-76
2023/05/17 12:26:21;;;;;;;5.00;4.40;;;;;;;;;;110538;1247;23231;-78
2023/05/17 12:28:54;;;;;;;5.90;4.40;;;;;;;;;;110750;1247;22499;-78
2023/05/17 12:31:23;;;;;;;8.20;4.90;;;;;;;;;;110629;1247;22480;-78
2023/05/17 12:33:49;;;;;;;9.00;5.60;;;;;;;;;;110726;1247;22445;-78
2023/05/17 12:36:16;;;;;;;14.50;9.70;;;;;;;;;;110759;1247;22579;-79
2023/05/17 12:38:43;;;;;;;16.40;10.00;;;;;;;;;;110805;1247;22298;-78
2023/05/17 12:41:10;;;;;;;8.40;7.10;;;;;;;;;;110583;1248;23271;-77
2023/05/17 12:43:37;;;;;;;12.10;8.40;;;;;;;;;;110546;1247;23067;-76
2023/05/17 12:46:07;;;;;;;9.10;6.70;;;;;;;;;;110861;1247;22802;-77
2023/05/17 12:48:37;;;;;;;8.80;6.20;;;;;;;;;;110783;1249;22576;-77
2023/05/17 12:51:07;;;;;;;17.40;7.20;;;;;;;;;;110793;1247;22479;-77
2023/05/17 12:53:35;;;;;;;7.50;6.40;;;;;;;;;;110695;1247;22452;-76
2023/05/17 12:56:01;;;;;;;10.80;8.30;;;;;;;;;;110831;1247;23115;-77
2023/05/17 12:58:28;;;;;;;19.70;14.00;;;;;;;;;;110767;1247;22573;-76
2023/05/17 13:00:55;;;;;;;13.50;12.00;;;;;;;;;;110766;1247;22540;-77
2023/05/17 13:03:22;;;;;;;12.30;9.20;;;;;;;;;;110608;1247;22543;-78
2023/05/17 13:05:56;;;;;;;14.70;11.40;;;;;;;;;;110392;1247;22539;-78
2023/05/17 13:08:23;;;;;;;9.80;8.80;;;;;;;;;;110667;1247;22230;-76
2023/05/17 13:10:49;;;;;;;8.90;7.10;;;;;;;;;;110580;1247;22853;-76
2023/05/17 13:13:19;;;;;;;8.20;6.60;;;;;;;;;;110654;1247;22324;-76
2023/05/17 13:15:48;;;;;;;9.50;7.70;;;;;;;;;;110747;1247;22350;-77
2023/05/17 13:18:15;;;;;;;9.50;8.00;;;;;;;;;;110776;1247;22369;-77
2023/05/17 13:20:41;;;;;;;10.10;7.30;;;;;;;;;;110753;1247;22438;-76
2023/05/17 13:23:08;;;;;;;10.80;7.40;;;;;;;;;;110629;1247;22908;-76
2023/05/17 13:25:37;;;;;;;11.10;7.30;;;;;;;;;;110580;1247;22497;-76
2023/05/17 13:28:04;;;;;;;13.30;10.40;;;;;;;;;;110772;1247;22580;-77
2023/05/17 13:30:30;;;;;;;16.00;9.80;;;;;;;;;;110834;1247;22324;-77
2023/05/17 13:32:56;;;;;;;12.80;8.50;;;;;;;;;;110780;1247;22329;-77
2023/05/17 13:35:23;;;;;;;12.40;10.40;;;;;;;;;;110786;1247;22365;-77
2023/05/17 13:37:49;;;;;;;12.60;10.30;;;;;;;;;;110764;1247;22388;-77
2023/05/17 13:40:16;;;;;;;11.90;8.00;;;;;;;;;;110758;1250;22971;-76
2023/05/17 13:42:42;;;;;;;14.30;9.20;;;;;;;;;;110701;1247;22433;-77
2023/05/17 13:45:10;;;;;;;14.10;8.70;;;;;;;;;;110773;1247;22522;-76
2023/05/17 13:47:36;;;;;;;12.00;8.20;;;;;;;;;;110822;1247;22544;-77
2023/05/17 13:50:03;;;;;;;11.20;9.10;;;;;;;;;;110755;1247;22583;-76
2023/05/17 13:52:30;;;;;;;10.50;8.20;;;;;;;;;;110713;1247;23054;-77
2023/05/17 13:54:56;;;;;;;11.80;9.10;;;;;;;;;;110689;1247;22506;-78
2023/05/17 13:57:22;;;;;;;17.70;10.50;;;;;;;;;;110734;1247;22653;-79
2023/05/17 13:59:49;;;;;;;13.20;10.80;;;;;;;;;;110595;1247;284832;-79
2023/05/17 14:02:15;;;;;;;19.50;14.70;;;;;;;;;;110847;1247;22512;-76
2023/05/17 14:04:42;;;;;;;24.30;19.40;;;;;;;;;;110852;1247;22439;-76
2023/05/17 14:07:08;;;;;;;18.20;14.90;;;;;;;;;;110816;1247;23108;-77
2023/05/17 14:09:35;;;;;;;18.40;14.70;;;;;;;;;;110853;1247;22282;-77
2023/05/17 14:12:02;;;;;;;14.20;11.10;;;;;;;;;;110858;1247;22451;-76
2023/05/17 14:14:28;;;;;;;12.50;9.00;;;;;;;;;;110817;1247;22541;-76
2023/05/17 14:16:55;;;;;;;12.80;8.60;;;;;;;;;;110877;1247;22444;-76
2023/05/17 14:19:21;;;;;;;13.20;9.40;;;;;;;;;;110858;1247;22328;-76
2023/05/17 14:21:49;;;;;;;13.10;11.70;;;;;;;;;;110866;1247;22542;-78
2023/05/17 14:24:15;;;;;;;10.60;8.10;;;;;;;;;;110862;1247;23024;-78
2023/05/17 14:26:42;;;;;;;12.50;6.90;;;;;;;;;;110726;1247;22517;-78